createdAt,value
2022-08-22T00:03:04.492Z,99.90
2022-08-22T00:03:07.174Z,99.90
2022-08-22T05:48:19.085Z,99.90
2022-08-22T05:50:51.162Z,99.90
2022-08-22T05:53:29.681Z,99.90
2022-08-22T05:56:02.820Z,99.90
2022-08-22T05:58:51.966Z,99.90
2022-08-22T06:01:26.270Z,99.90
2022-08-22T06:04:01.345Z,99.90
2022-08-22T06:44:17.357Z,99.90
2022-08-22T06:46:47.992Z,99.90
2022-08-22T06:59:01.337Z,99.90
2022-08-22T07:01:35.119Z,99.90
2022-08-22T07:04:07.558Z,99.90
2022-08-22T07:06:39.335Z,99.90
2022-08-22T07:09:08.573Z,99.90
2022-08-22T07:11:40.426Z,99.90
2022-08-22T07:14:12.615Z,99.90
2022-08-22T07:16:45.448Z,99.90
2022-08-22T07:19:25.745Z,99.90
2022-08-22T07:21:54.512Z,99.90
2022-08-22T07:24:26.179Z,99.90
2022-08-22T07:27:12.210Z,99.90
2022-08-22T07:29:51.010Z,99.90
2022-08-22T07:32:23.234Z,99.90
2022-08-22T07:35:10.535Z,99.90
2022-08-22T07:37:52.863Z,99.90
2022-08-22T07:40:28.374Z,99.90
2022-08-22T07:43:03.392Z,99.90
2022-08-22T07:45:39.797Z,99.90
2022-08-22T07:48:25.889Z,99.90
2022-08-22T07:51:05.241Z,99.90
2022-08-22T07:53:41.633Z,99.90
2022-08-22T07:56:15.488Z,99.90
2022-08-22T07:58:46.750Z,99.90
2022-08-22T08:01:21.052Z,99.90
2022-08-22T08:03:54.650Z,99.90
2022-08-22T08:06:24.337Z,99.90
2022-08-22T08:09:07.058Z,99.90
2022-08-22T08:11:42.491Z,99.90
2022-08-22T08:14:15.223Z,99.90
2022-08-22T08:17:01.163Z,99.90
2022-08-22T08:19:31.061Z,99.90
2022-08-22T08:21:59.791Z,99.90
2022-08-22T08:24:39.983Z,99.90
2022-08-22T08:27:33.138Z,99.90
2022-08-22T08:30:06.602Z,99.90
2022-08-22T08:32:38.542Z,99.90
2022-08-22T08:35:09.745Z,99.90
2022-08-22T08:37:46.051Z,99.90
2022-08-22T08:40:44.117Z,99.90
2022-08-22T08:43:29.715Z,99.90
2022-08-22T08:46:18.521Z,99.90
2022-08-22T08:49:14.729Z,99.90
2022-08-22T08:52:24.473Z,99.90
2022-08-22T08:55:02.304Z,99.90
2022-08-22T08:57:58.684Z,99.90
2022-08-22T09:00:57.935Z,99.90
2022-08-22T09:04:04.875Z,99.90
2022-08-22T09:06:56.823Z,99.90
2022-08-22T09:09:52.492Z,99.90
2022-08-22T09:12:54.284Z,99.90
2022-08-22T09:15:58.498Z,99.90
2022-08-22T09:18:49.781Z,99.90
2022-08-22T09:21:51.266Z,99.90
2022-08-22T09:24:43.670Z,99.90
2022-08-22T09:27:18.981Z,99.90
2022-08-22T09:32:55.738Z,99.90
2022-08-22T09:35:31.872Z,99.90
2022-08-22T09:38:23.537Z,99.90
2022-08-22T09:41:00.167Z,99.90
2022-08-22T09:43:36.892Z,99.90
2022-08-22T09:46:16.547Z,99.90
2022-08-22T09:49:09.811Z,99.90
2022-08-22T09:51:43.021Z,99.90
2022-08-22T09:54:32.845Z,99.90
2022-08-22T09:57:34.933Z,99.90
2022-08-22T10:00:22.213Z,99.90
2022-08-22T10:03:12.141Z,99.90
2022-08-22T10:05:46.549Z,99.90
2022-08-22T10:08:33.044Z,99.90
2022-08-22T10:11:24.061Z,99.90
2022-08-22T10:14:02.892Z,99.90
2022-08-22T10:16:59.088Z,99.90
2022-08-22T10:19:33.135Z,99.90
2022-08-22T10:22:30.903Z,99.90
2022-08-22T10:25:25.096Z,99.90
2022-08-22T10:28:13.066Z,99.90
2022-08-22T10:30:50.215Z,99.90
2022-08-22T10:33:25.783Z,99.90
2022-08-22T10:36:04.980Z,99.90
2022-08-22T10:38:46.534Z,99.90
2022-08-22T10:41:26.913Z,99.90
2022-08-22T10:44:03.945Z,99.90
2022-08-22T10:46:38.949Z,99.90
2022-08-22T10:49:17.989Z,99.90
2022-08-22T10:51:50.993Z,99.90
2022-08-22T10:54:37.810Z,99.90
2022-08-22T10:57:15.350Z,99.90
2022-08-22T10:59:58.392Z,99.90
2022-08-22T11:02:42.160Z,99.90
2022-08-22T11:05:32.116Z,99.90
2022-08-22T11:08:19.180Z,99.90
2022-08-22T11:11:05.186Z,99.90
2022-08-22T11:13:43.286Z,99.90
2022-08-22T11:16:28.444Z,99.90
2022-08-22T11:19:37.584Z,99.90
2022-08-22T11:22:16.012Z,99.90
2022-08-22T11:25:35.937Z,99.20
2022-08-22T11:28:26.407Z,98.70
2022-08-22T11:31:10.547Z,97.90
2022-08-22T11:33:50.745Z,98.30
2022-08-22T11:36:35.488Z,97.80
2022-08-22T11:39:21.935Z,97.50
2022-08-22T11:42:00.430Z,98.00
2022-08-22T11:44:34.770Z,98.30
2022-08-22T11:47:26.380Z,97.90
2022-08-22T11:50:01.337Z,98.10
2022-08-22T11:52:57.220Z,97.30
2022-08-22T11:55:33.245Z,96.80
2022-08-22T11:58:17.919Z,96.90
2022-08-22T12:00:56.409Z,97.60
2022-08-22T12:03:55.839Z,98.30
2022-08-22T12:06:56.207Z,97.80
2022-08-22T12:09:51.915Z,97.90
2022-08-22T12:12:42.761Z,98.40
2022-08-22T12:15:18.881Z,98.90
2022-08-22T12:18:32.011Z,98.30
2022-08-22T12:21:33.217Z,98.60
2022-08-22T12:24:28.577Z,97.30
2022-08-22T12:27:28.518Z,97.40
2022-08-22T12:30:14.385Z,97.10
2022-08-22T12:33:18.331Z,97.20
2022-08-22T12:36:04.800Z,97.60
2022-08-22T12:38:47.693Z,97.80
2022-08-22T12:41:38.434Z,98.30
2022-08-22T12:44:24.362Z,98.00
2022-08-22T12:47:09.411Z,97.70
2022-08-22T12:49:53.546Z,97.80
2022-08-22T12:52:35.132Z,97.60
2022-08-22T12:55:37.798Z,97.70
2022-08-22T12:58:17.813Z,97.40
2022-08-22T13:00:48.494Z,97.70
2022-08-22T13:03:24.878Z,97.60
2022-08-22T13:05:59.813Z,98.10
2022-08-22T13:08:32.218Z,98.30
2022-08-22T13:11:04.763Z,98.00
2022-08-22T13:13:44.288Z,97.00
2022-08-22T13:16:26.669Z,96.50
2022-08-22T13:18:58.993Z,96.70
2022-08-22T13:21:34.999Z,96.70
2022-08-22T13:24:10.481Z,97.90
2022-08-22T13:26:48.962Z,97.40
2022-08-22T13:29:26.179Z,97.30
2022-08-22T13:31:59.182Z,96.40
2022-08-22T13:34:40.122Z,96.40
2022-08-22T13:37:20.104Z,95.80
2022-08-22T13:39:59.767Z,96.10
2022-08-22T13:42:33.087Z,96.90
2022-08-22T13:45:11.839Z,96.70
2022-08-22T13:47:57.729Z,96.30
2022-08-22T13:50:53.694Z,96.50
2022-08-22T13:53:28.873Z,96.90
2022-08-22T13:56:07.169Z,96.70
2022-08-22T13:58:48.031Z,96.50
2022-08-22T14:01:37.803Z,96.10
2022-08-22T14:04:31.644Z,96.30
2022-08-22T14:07:53.017Z,96.20
2022-08-22T14:10:25.054Z,96.40
2022-08-22T14:13:33.839Z,96.40
2022-08-22T14:16:10.468Z,96.40
2022-08-22T14:18:46.217Z,96.30
2022-08-22T14:21:25.945Z,96.90
2022-08-22T14:24:00.086Z,96.20
2022-08-22T14:26:33.179Z,95.30
2022-08-22T14:29:12.554Z,94.70
2022-08-22T14:31:41.568Z,94.90
2022-08-22T14:34:15.805Z,95.60
2022-08-22T14:36:49.571Z,95.80
2022-08-22T14:39:27.785Z,95.80
2022-08-22T14:42:04.236Z,96.60
2022-08-22T14:44:39.862Z,96.20
2022-08-22T14:47:32.443Z,96.20
2022-08-22T14:50:11.316Z,96.30
2022-08-22T14:52:43.606Z,96.20
2022-08-22T14:55:19.910Z,96.90
2022-08-22T14:57:53.077Z,96.90
2022-08-22T15:00:34.817Z,97.00
2022-08-22T15:03:13.598Z,96.90
2022-08-22T15:05:49.705Z,97.40
2022-08-22T15:08:30.793Z,97.00
2022-08-22T15:11:21.916Z,98.00
2022-08-22T15:14:00.769Z,97.70
2022-08-22T15:16:34.180Z,97.90
2022-08-22T15:19:06.756Z,97.90
2022-08-22T15:21:36.933Z,98.40
2022-08-22T15:24:15.213Z,98.30
2022-08-22T15:26:51.951Z,97.40
2022-08-22T15:29:26.620Z,97.40
2022-08-22T15:31:58.562Z,98.00
2022-08-22T15:34:34.036Z,98.20
2022-08-22T15:37:29.393Z,98.70
2022-08-22T15:40:14.066Z,99.40
2022-08-22T15:42:45.735Z,99.90
2022-08-22T15:45:29.624Z,99.90
2022-08-22T15:48:02.374Z,99.90
2022-08-22T15:50:35.822Z,99.90
2022-08-22T15:53:15.216Z,99.90
2022-08-22T15:56:20.935Z,99.90
2022-08-22T15:58:53.012Z,99.90
2022-08-22T16:01:23.589Z,99.90
2022-08-22T16:03:59.544Z,99.90
2022-08-22T16:06:46.680Z,99.90
2022-08-22T16:09:37.393Z,99.90
2022-08-22T16:12:09.705Z,99.90
2022-08-22T16:14:50.910Z,99.90
2022-08-22T16:17:43.265Z,99.90
2022-08-22T16:20:54.399Z,99.90
2022-08-22T16:23:22.773Z,99.90
2022-08-22T16:26:22.655Z,99.90
2022-08-22T16:28:58.115Z,99.90
2022-08-22T16:31:31.502Z,99.90
2022-08-22T16:34:20.694Z,99.90
2022-08-22T16:36:51.626Z,99.90
2022-08-22T16:39:41.739Z,99.90
2022-08-22T16:42:34.948Z,99.90
2022-08-22T16:45:30.575Z,99.90
2022-08-22T16:47:59.291Z,99.90
2022-08-22T16:50:34.180Z,99.90
2022-08-22T16:53:09.084Z,99.90
2022-08-22T16:55:46.115Z,99.90
2022-08-22T16:58:56.236Z,99.90
2022-08-22T17:01:55.359Z,99.90
2022-08-22T17:04:30.198Z,99.90
2022-08-22T17:07:09.802Z,99.90
2022-08-22T17:10:12.481Z,99.90
2022-08-22T17:13:01.604Z,99.90
2022-08-22T17:15:42.138Z,99.90
2022-08-22T17:18:31.852Z,99.90
2022-08-22T17:21:10.078Z,99.90
2022-08-22T17:23:46.240Z,99.90
2022-08-22T17:26:23.447Z,99.90
2022-08-22T17:29:02.338Z,99.90
2022-08-22T17:31:42.399Z,99.90
2022-08-22T17:34:25.888Z,99.90
2022-08-22T17:37:07.553Z,99.90
2022-08-22T17:40:02.714Z,99.90
2022-08-22T17:42:45.691Z,99.90
2022-08-22T17:45:27.580Z,99.90
2022-08-22T17:48:06.237Z,99.90
2022-08-22T17:50:40.570Z,99.90
2022-08-22T17:53:12.171Z,99.90
2022-08-22T17:55:58.142Z,99.90
2022-08-22T17:58:31.837Z,99.90
2022-08-22T18:01:15.872Z,99.90
2022-08-22T18:03:51.392Z,99.90
2022-08-22T18:06:23.823Z,99.90
2022-08-22T18:11:49.518Z,99.90
2022-08-22T18:14:26.715Z,99.90
2022-08-22T18:16:59.141Z,99.90
2022-08-22T18:19:43.230Z,99.90
2022-08-22T18:22:27.925Z,99.90
2022-08-22T18:25:02.576Z,99.90
2022-08-22T18:27:35.788Z,99.90
2022-08-22T18:30:21.797Z,99.90
2022-08-22T18:33:02.054Z,99.90
2022-08-22T18:35:41.043Z,99.90
2022-08-22T18:38:23.627Z,99.90
2022-08-22T18:40:59.019Z,99.90
2022-08-22T18:43:36.395Z,99.90
2022-08-22T18:46:32.743Z,99.90
2022-08-22T18:49:15.418Z,99.90
2022-08-22T18:52:29.440Z,99.90
2022-08-22T18:55:29.116Z,99.90
2022-08-22T18:58:34.213Z,99.90
2022-08-22T19:01:22.221Z,99.90
2022-08-22T19:04:08.936Z,99.90
2022-08-22T19:06:59.012Z,99.90
2022-08-22T19:09:59.122Z,99.90
2022-08-22T19:12:45.000Z,99.90
2022-08-22T19:15:30.598Z,99.90
2022-08-22T19:18:19.061Z,99.90
2022-08-22T19:21:34.343Z,99.90
2022-08-22T19:24:06.154Z,99.90
2022-08-22T19:26:40.815Z,99.90
2022-08-22T19:29:42.295Z,99.90
2022-08-22T19:32:13.956Z,99.90
2022-08-22T19:34:46.789Z,99.90
2022-08-22T19:37:32.928Z,99.90
2022-08-22T19:40:06.303Z,99.90
2022-08-22T19:42:41.760Z,99.90
2022-08-22T19:45:28.775Z,99.90
2022-08-22T19:48:01.398Z,99.90
2022-08-22T19:50:36.225Z,99.90
2022-08-22T19:53:32.936Z,99.90
2022-08-22T19:56:13.831Z,99.90
2022-08-22T19:58:56.884Z,99.90
2022-08-22T20:01:39.438Z,99.90
2022-08-22T20:04:20.518Z,99.90
2022-08-22T20:06:57.757Z,99.90
2022-08-22T20:09:35.100Z,99.90
2022-08-22T20:12:15.758Z,99.90
2022-08-22T20:14:47.157Z,99.90
2022-08-22T20:17:40.668Z,99.90
2022-08-22T20:20:19.072Z,99.90
2022-08-22T20:22:53.124Z,99.90
2022-08-22T20:25:43.318Z,99.90
2022-08-22T20:28:34.180Z,99.90
2022-08-22T20:31:07.552Z,99.90
2022-08-22T20:33:40.051Z,99.90
2022-08-22T20:36:27.245Z,99.90
2022-08-22T20:39:01.061Z,99.90
2022-08-22T20:41:35.447Z,99.90
2022-08-22T20:44:12.316Z,99.90
2022-08-22T20:46:59.111Z,99.90
2022-08-22T20:49:32.891Z,99.90
2022-08-22T20:52:04.017Z,99.90
2022-08-22T20:54:35.005Z,99.90
2022-08-22T20:57:11.617Z,99.90
2022-08-22T20:59:41.835Z,99.90
2022-08-22T21:02:15.701Z,99.90
2022-08-22T21:04:53.679Z,99.90
2022-08-22T21:07:27.921Z,99.90
2022-08-22T21:10:21.598Z,99.90
2022-08-22T21:13:06.011Z,99.90
2022-08-22T21:15:37.042Z,99.90
2022-08-22T21:18:05.926Z,99.90
2022-08-22T21:20:38.373Z,99.90
2022-08-22T21:23:09.589Z,99.90
2022-08-22T21:25:54.927Z,99.90
2022-08-22T21:28:34.435Z,99.90
2022-08-22T21:31:10.916Z,99.90
2022-08-22T21:33:44.807Z,99.90
2022-08-22T21:36:17.125Z,99.90
2022-08-22T21:38:51.077Z,99.90
2022-08-22T21:41:27.157Z,99.90
2022-08-22T21:43:55.510Z,99.90
2022-08-22T21:46:28.822Z,99.90
2022-08-22T21:49:03.051Z,99.90
2022-08-22T21:51:41.947Z,99.90
2022-08-22T21:54:29.809Z,99.90
2022-08-22T21:56:59.775Z,99.90
2022-08-22T21:59:51.188Z,99.90
2022-08-22T22:02:36.343Z,99.90
